sensor_id;sensor_type;location;lat;lon;timestamp;P1;durP1;ratioP1;P2;durP2;ratioP2
56255;SDS011;57229;51.432;-2.598;2023-01-29T00:01:53;24.30;;;14.32;;
56255;SDS011;57229;51.432;-2.598;2023-01-29T00:04:19;20.25;;;13.40;;
56255;SDS011;57229;51.432;-2.598;2023-01-29T00:06:45;23.27;;;13.57;;
56255;SDS011;57229;51.432;-2.598;2023-01-29T00:09:11;24.52;;;14.30;;
56255;SDS011;57229;51.432;-2.598;2023-01-29T00:11:37;24.20;;;13.27;;
56255;SDS011;57229;51.432;-2.598;2023-01-29T00:14:03;23.75;;;13.73;;
56255;SDS011;57229;51.432;-2.598;2023-01-29T00:16:30;20.30;;;12.52;;
56255;SDS011;57229;51.432;-2.598;2023-01-29T00:18:55;21.83;;;13.13;;
56255;SDS011;57229;51.432;-2.598;2023-01-29T00:21:21;21.15;;;12.35;;
56255;SDS011;57229;51.432;-2.598;2023-01-29T00:23:48;26.80;;;13.32;;
56255;SDS011;57229;51.432;-2.598;2023-01-29T00:26:14;22.00;;;13.15;;
56255;SDS011;57229;51.432;-2.598;2023-01-29T00:28:40;22.98;;;13.88;;
56255;SDS011;57229;51.432;-2.598;2023-01-29T00:31:10;21.75;;;12.40;;
56255;SDS011;57229;51.432;-2.598;2023-01-29T00:33:41;23.52;;;12.95;;
56255;SDS011;57229;51.432;-2.598;2023-01-29T00:36:08;23.77;;;13.80;;
56255;SDS011;57229;51.432;-2.598;2023-01-29T00:38:35;22.58;;;14.77;;
56255;SDS011;57229;51.432;-2.598;2023-01-29T00:41:12;28.77;;;15.25;;
56255;SDS011;57229;51.432;-2.598;2023-01-29T00:43:58;26.35;;;14.55;;
56255;SDS011;57229;51.432;-2.598;2023-01-29T00:46:43;25.92;;;14.38;;
56255;SDS011;57229;51.432;-2.598;2023-01-29T00:49:15;23.83;;;13.55;;
56255;SDS011;57229;51.432;-2.598;2023-01-29T00:51:41;23.23;;;14.35;;
56255;SDS011;57229;51.432;-2.598;2023-01-29T00:54:07;22.50;;;12.90;;
56255;SDS011;57229;51.432;-2.598;2023-01-29T00:56:34;19.45;;;12.27;;
56255;SDS011;57229;51.432;-2.598;2023-01-29T00:59:00;21.15;;;12.73;;
56255;SDS011;57229;51.432;-2.598;2023-01-29T01:01:27;18.73;;;12.75;;
56255;SDS011;57229;51.432;-2.598;2023-01-29T01:04:11;20.70;;;12.27;;
56255;SDS011;57229;51.432;-2.598;2023-01-29T01:06:37;20.92;;;11.70;;
56255;SDS011;57229;51.432;-2.598;2023-01-29T01:09:04;19.13;;;11.45;;
56255;SDS011;57229;51.432;-2.598;2023-01-29T01:11:48;18.67;;;11.80;;
56255;SDS011;57229;51.432;-2.598;2023-01-29T01:14:15;21.00;;;12.18;;
56255;SDS011;57229;51.432;-2.598;2023-01-29T01:16:43;17.52;;;11.77;;
56255;SDS011;57229;51.432;-2.598;2023-01-29T01:19:11;21.58;;;12.32;;
56255;SDS011;57229;51.432;-2.598;2023-01-29T01:21:37;17.85;;;11.52;;
56255;SDS011;57229;51.432;-2.598;2023-01-29T01:24:03;19.85;;;10.90;;
56255;SDS011;57229;51.432;-2.598;2023-01-29T01:26:30;18.45;;;11.25;;
56255;SDS011;57229;51.432;-2.598;2023-01-29T01:28:57;18.45;;;11.18;;
56255;SDS011;57229;51.432;-2.598;2023-01-29T01:31:23;14.93;;;10.13;;
56255;SDS011;57229;51.432;-2.598;2023-01-29T01:33:49;15.43;;;10.40;;
56255;SDS011;57229;51.432;-2.598;2023-01-29T01:36:15;17.75;;;10.73;;
56255;SDS011;57229;51.432;-2.598;2023-01-29T01:38:41;18.45;;;10.48;;
56255;SDS011;57229;51.432;-2.598;2023-01-29T01:41:11;15.13;;;10.13;;
56255;SDS011;57229;51.432;-2.598;2023-01-29T01:43:49;15.50;;;9.68;;
56255;SDS011;57229;51.432;-2.598;2023-01-29T01:46:15;14.77;;;9.43;;
56255;SDS011;57229;51.432;-2.598;2023-01-29T01:48:41;16.00;;;9.48;;
56255;SDS011;57229;51.432;-2.598;2023-01-29T01:51:09;14.95;;;8.52;;
56255;SDS011;57229;51.432;-2.598;2023-01-29T01:53:39;14.07;;;8.82;;
56255;SDS011;57229;51.432;-2.598;2023-01-29T01:56:13;12.63;;;8.65;;
56255;SDS011;57229;51.432;-2.598;2023-01-29T01:58:43;14.32;;;9.75;;
56255;SDS011;57229;51.432;-2.598;2023-01-29T02:01:14;14.50;;;9.60;;
56255;SDS011;57229;51.432;-2.598;2023-01-29T02:03:43;17.42;;;9.02;;
56255;SDS011;57229;51.432;-2.598;2023-01-29T02:06:38;13.93;;;9.60;;
56255;SDS011;57229;51.432;-2.598;2023-01-29T02:09:51;15.45;;;9.38;;
56255;SDS011;57229;51.432;-2.598;2023-01-29T02:12:16;13.90;;;9.25;;
56255;SDS011;57229;51.432;-2.598;2023-01-29T02:14:43;17.58;;;9.65;;
56255;SDS011;57229;51.432;-2.598;2023-01-29T02:17:10;14.65;;;9.20;;
56255;SDS011;57229;51.432;-2.598;2023-01-29T02:19:43;17.52;;;9.10;;
56255;SDS011;57229;51.432;-2.598;2023-01-29T02:27:26;15.05;;;8.18;;
56255;SDS011;57229;51.432;-2.598;2023-01-29T02:30:11;13.88;;;8.52;;
56255;SDS011;57229;51.432;-2.598;2023-01-29T02:33:01;15.20;;;8.70;;
56255;SDS011;57229;51.432;-2.598;2023-01-29T02:35:39;14.05;;;7.97;;
56255;SDS011;57229;51.432;-2.598;2023-01-29T02:38:29;12.80;;;8.32;;
56255;SDS011;57229;51.432;-2.598;2023-01-29T02:48:56;11.55;;;8.45;;
56255;SDS011;57229;51.432;-2.598;2023-01-29T02:57:28;13.38;;;8.18;;
56255;SDS011;57229;51.432;-2.598;2023-01-29T02:59:59;11.48;;;8.07;;
56255;SDS011;57229;51.432;-2.598;2023-01-29T03:02:49;11.50;;;8.00;;
56255;SDS011;57229;51.432;-2.598;2023-01-29T03:05:26;12.55;;;8.18;;
56255;SDS011;57229;51.432;-2.598;2023-01-29T03:08:03;12.43;;;8.27;;
56255;SDS011;57229;51.432;-2.598;2023-01-29T03:10:36;12.10;;;7.88;;
56255;SDS011;57229;51.432;-2.598;2023-01-29T03:13:11;12.93;;;9.27;;
56255;SDS011;57229;51.432;-2.598;2023-01-29T03:15:48;20.05;;;8.98;;
56255;SDS011;57229;51.432;-2.598;2023-01-29T03:18:25;13.98;;;8.18;;
56255;SDS011;57229;51.432;-2.598;2023-01-29T03:20:59;13.25;;;7.93;;
56255;SDS011;57229;51.432;-2.598;2023-01-29T03:23:49;19.08;;;8.18;;
56255;SDS011;57229;51.432;-2.598;2023-01-29T03:26:34;11.67;;;8.23;;
56255;SDS011;57229;51.432;-2.598;2023-01-29T03:29:19;12.60;;;8.50;;
56255;SDS011;57229;51.432;-2.598;2023-01-29T03:32:04;11.13;;;7.93;;
56255;SDS011;57229;51.432;-2.598;2023-01-29T03:34:33;14.52;;;8.52;;
56255;SDS011;57229;51.432;-2.598;2023-01-29T03:37:28;12.57;;;8.10;;
56255;SDS011;57229;51.432;-2.598;2023-01-29T03:40:03;12.68;;;8.38;;
56255;SDS011;57229;51.432;-2.598;2023-01-29T03:45:42;12.63;;;7.82;;
56255;SDS011;57229;51.432;-2.598;2023-01-29T03:48:39;11.13;;;7.85;;
56255;SDS011;57229;51.432;-2.598;2023-01-29T03:51:22;11.27;;;8.23;;
56255;SDS011;57229;51.432;-2.598;2023-01-29T03:53:53;11.95;;;8.07;;
56255;SDS011;57229;51.432;-2.598;2023-01-29T04:02:09;11.13;;;8.15;;
56255;SDS011;57229;51.432;-2.598;2023-01-29T04:04:40;14.52;;;8.05;;
56255;SDS011;57229;51.432;-2.598;2023-01-29T04:07:10;13.63;;;8.52;;
56255;SDS011;57229;51.432;-2.598;2023-01-29T04:09:41;13.73;;;8.50;;
56255;SDS011;57229;51.432;-2.598;2023-01-29T04:12:13;14.38;;;8.63;;
56255;SDS011;57229;51.432;-2.598;2023-01-29T04:14:43;14.40;;;8.35;;
56255;SDS011;57229;51.432;-2.598;2023-01-29T04:17:17;12.85;;;8.00;;
56255;SDS011;57229;51.432;-2.598;2023-01-29T04:19:46;13.02;;;8.38;;
56255;SDS011;57229;51.432;-2.598;2023-01-29T04:22:21;11.60;;;7.85;;
56255;SDS011;57229;51.432;-2.598;2023-01-29T04:24:52;15.05;;;8.45;;
56255;SDS011;57229;51.432;-2.598;2023-01-29T04:30:22;10.88;;;7.72;;
56255;SDS011;57229;51.432;-2.598;2023-01-29T04:33:03;11.68;;;8.10;;
56255;SDS011;57229;51.432;-2.598;2023-01-29T04:43:57;13.63;;;7.97;;
56255;SDS011;57229;51.432;-2.598;2023-01-29T04:46:42;10.23;;;7.35;;
56255;SDS011;57229;51.432;-2.598;2023-01-29T04:49:21;12.77;;;7.28;;
56255;SDS011;57229;51.432;-2.598;2023-01-29T04:52:14;12.10;;;7.60;;
56255;SDS011;57229;51.432;-2.598;2023-01-29T04:54:53;11.18;;;7.72;;
56255;SDS011;57229;51.432;-2.598;2023-01-29T04:59:59;14.13;;;7.90;;
56255;SDS011;57229;51.432;-2.598;2023-01-29T05:02:35;11.77;;;7.60;;
56255;SDS011;57229;51.432;-2.598;2023-01-29T05:05:03;12.32;;;7.57;;
56255;SDS011;57229;51.432;-2.598;2023-01-29T05:07:31;11.35;;;7.35;;
56255;SDS011;57229;51.432;-2.598;2023-01-29T05:10:00;10.68;;;7.47;;
56255;SDS011;57229;51.432;-2.598;2023-01-29T05:12:28;12.63;;;7.90;;
56255;SDS011;57229;51.432;-2.598;2023-01-29T05:14:55;12.82;;;7.72;;
56255;SDS011;57229;51.432;-2.598;2023-01-29T05:17:25;12.88;;;7.50;;
56255;SDS011;57229;51.432;-2.598;2023-01-29T05:19:52;11.10;;;7.47;;
56255;SDS011;57229;51.432;-2.598;2023-01-29T05:22:19;10.27;;;7.38;;
56255;SDS011;57229;51.432;-2.598;2023-01-29T05:24:47;11.85;;;7.10;;
56255;SDS011;57229;51.432;-2.598;2023-01-29T05:27:34;10.20;;;7.20;;
56255;SDS011;57229;51.432;-2.598;2023-01-29T05:30:18;12.10;;;7.45;;
56255;SDS011;57229;51.432;-2.598;2023-01-29T05:32:44;11.00;;;7.35;;
56255;SDS011;57229;51.432;-2.598;2023-01-29T05:35:09;9.77;;;6.97;;
56255;SDS011;57229;51.432;-2.598;2023-01-29T05:37:35;10.93;;;7.63;;
56255;SDS011;57229;51.432;-2.598;2023-01-29T05:40:01;14.13;;;7.93;;
56255;SDS011;57229;51.432;-2.598;2023-01-29T05:42:27;10.35;;;7.82;;
56255;SDS011;57229;51.432;-2.598;2023-01-29T05:45:02;11.48;;;7.55;;
56255;SDS011;57229;51.432;-2.598;2023-01-29T05:47:29;9.50;;;7.10;;
56255;SDS011;57229;51.432;-2.598;2023-01-29T05:49:54;12.20;;;7.45;;
56255;SDS011;57229;51.432;-2.598;2023-01-29T05:52:20;11.30;;;7.85;;
56255;SDS011;57229;51.432;-2.598;2023-01-29T05:54:46;11.13;;;7.13;;
56255;SDS011;57229;51.432;-2.598;2023-01-29T05:57:13;11.05;;;7.45;;
56255;SDS011;57229;51.432;-2.598;2023-01-29T05:59:39;12.18;;;7.35;;
56255;SDS011;57229;51.432;-2.598;2023-01-29T06:02:05;10.05;;;6.90;;
56255;SDS011;57229;51.432;-2.598;2023-01-29T06:04:31;10.13;;;7.25;;
56255;SDS011;57229;51.432;-2.598;2023-01-29T06:06:56;9.38;;;6.88;;
56255;SDS011;57229;51.432;-2.598;2023-01-29T06:09:22;11.02;;;7.45;;
56255;SDS011;57229;51.432;-2.598;2023-01-29T06:11:48;12.23;;;7.20;;
56255;SDS011;57229;51.432;-2.598;2023-01-29T06:14:14;10.48;;;7.05;;
56255;SDS011;57229;51.432;-2.598;2023-01-29T06:16:39;10.13;;;6.78;;
56255;SDS011;57229;51.432;-2.598;2023-01-29T06:19:05;11.02;;;7.05;;
56255;SDS011;57229;51.432;-2.598;2023-01-29T06:21:31;9.68;;;6.78;;
56255;SDS011;57229;51.432;-2.598;2023-01-29T06:23:57;14.02;;;7.03;;
56255;SDS011;57229;51.432;-2.598;2023-01-29T06:26:23;11.25;;;6.25;;
56255;SDS011;57229;51.432;-2.598;2023-01-29T06:28:49;10.40;;;7.18;;
56255;SDS011;57229;51.432;-2.598;2023-01-29T06:31:15;9.82;;;6.82;;
56255;SDS011;57229;51.432;-2.598;2023-01-29T06:33:41;10.98;;;7.10;;
56255;SDS011;57229;51.432;-2.598;2023-01-29T06:36:06;8.85;;;6.45;;
56255;SDS011;57229;51.432;-2.598;2023-01-29T06:38:32;10.77;;;6.60;;
56255;SDS011;57229;51.432;-2.598;2023-01-29T06:40:59;10.82;;;7.25;;
56255;SDS011;57229;51.432;-2.598;2023-01-29T06:43:32;9.32;;;6.70;;
56255;SDS011;57229;51.432;-2.598;2023-01-29T06:45:58;10.07;;;6.97;;
56255;SDS011;57229;51.432;-2.598;2023-01-29T06:48:23;9.85;;;6.57;;
56255;SDS011;57229;51.432;-2.598;2023-01-29T06:50:49;9.40;;;6.65;;
56255;SDS011;57229;51.432;-2.598;2023-01-29T06:53:17;9.98;;;6.30;;
56255;SDS011;57229;51.432;-2.598;2023-01-29T06:55:49;10.32;;;7.00;;
56255;SDS011;57229;51.432;-2.598;2023-01-29T06:58:16;9.43;;;6.60;;
56255;SDS011;57229;51.432;-2.598;2023-01-29T07:00:42;8.90;;;5.97;;
56255;SDS011;57229;51.432;-2.598;2023-01-29T07:03:08;8.68;;;5.72;;
56255;SDS011;57229;51.432;-2.598;2023-01-29T07:05:34;9.18;;;6.00;;
56255;SDS011;57229;51.432;-2.598;2023-01-29T07:08:01;8.80;;;6.15;;
56255;SDS011;57229;51.432;-2.598;2023-01-29T07:10:26;9.02;;;5.70;;
56255;SDS011;57229;51.432;-2.598;2023-01-29T07:12:57;8.93;;;6.30;;
56255;SDS011;57229;51.432;-2.598;2023-01-29T07:15:24;8.75;;;6.32;;
56255;SDS011;57229;51.432;-2.598;2023-01-29T07:20:23;27.08;;;6.55;;
56255;SDS011;57229;51.432;-2.598;2023-01-29T07:22:50;11.30;;;6.45;;
56255;SDS011;57229;51.432;-2.598;2023-01-29T07:25:16;12.18;;;6.10;;
56255;SDS011;57229;51.432;-2.598;2023-01-29T07:27:42;9.13;;;5.97;;
56255;SDS011;57229;51.432;-2.598;2023-01-29T07:30:07;10.95;;;6.57;;
56255;SDS011;57229;51.432;-2.598;2023-01-29T07:32:34;9.68;;;6.15;;
56255;SDS011;57229;51.432;-2.598;2023-01-29T07:34:59;7.95;;;5.72;;
56255;SDS011;57229;51.432;-2.598;2023-01-29T07:37:25;8.20;;;5.60;;
56255;SDS011;57229;51.432;-2.598;2023-01-29T07:39:51;10.05;;;5.93;;
56255;SDS011;57229;51.432;-2.598;2023-01-29T07:42:17;13.07;;;5.78;;
56255;SDS011;57229;51.432;-2.598;2023-01-29T07:44:42;8.40;;;5.57;;
56255;SDS011;57229;51.432;-2.598;2023-01-29T07:47:08;7.85;;;5.45;;
56255;SDS011;57229;51.432;-2.598;2023-01-29T07:49:34;10.15;;;5.43;;
56255;SDS011;57229;51.432;-2.598;2023-01-29T07:52:00;7.63;;;5.30;;
56255;SDS011;57229;51.432;-2.598;2023-01-29T07:54:25;7.28;;;5.40;;
56255;SDS011;57229;51.432;-2.598;2023-01-29T07:56:51;6.93;;;5.32;;
56255;SDS011;57229;51.432;-2.598;2023-01-29T07:59:17;7.82;;;5.32;;
56255;SDS011;57229;51.432;-2.598;2023-01-29T08:01:42;6.57;;;5.20;;
56255;SDS011;57229;51.432;-2.598;2023-01-29T08:04:08;8.38;;;5.25;;
56255;SDS011;57229;51.432;-2.598;2023-01-29T08:06:34;7.78;;;5.70;;
56255;SDS011;57229;51.432;-2.598;2023-01-29T08:08:59;7.15;;;5.60;;
56255;SDS011;57229;51.432;-2.598;2023-01-29T08:11:25;7.32;;;5.63;;
56255;SDS011;57229;51.432;-2.598;2023-01-29T08:13:51;6.68;;;4.82;;
56255;SDS011;57229;51.432;-2.598;2023-01-29T08:16:16;7.20;;;5.32;;
56255;SDS011;57229;51.432;-2.598;2023-01-29T08:18:42;6.00;;;4.88;;
56255;SDS011;57229;51.432;-2.598;2023-01-29T08:21:11;7.47;;;4.97;;
56255;SDS011;57229;51.432;-2.598;2023-01-29T08:23:37;5.65;;;4.40;;
56255;SDS011;57229;51.432;-2.598;2023-01-29T08:26:03;9.57;;;4.72;;
56255;SDS011;57229;51.432;-2.598;2023-01-29T08:28:29;7.70;;;4.53;;
56255;SDS011;57229;51.432;-2.598;2023-01-29T08:30:55;6.00;;;4.90;;
56255;SDS011;57229;51.432;-2.598;2023-01-29T08:33:21;7.50;;;4.65;;
56255;SDS011;57229;51.432;-2.598;2023-01-29T08:35:48;7.80;;;4.40;;
56255;SDS011;57229;51.432;-2.598;2023-01-29T08:38:17;6.68;;;4.78;;
56255;SDS011;57229;51.432;-2.598;2023-01-29T08:40:43;7.25;;;4.82;;
56255;SDS011;57229;51.432;-2.598;2023-01-29T08:43:09;5.82;;;4.32;;
56255;SDS011;57229;51.432;-2.598;2023-01-29T08:45:37;6.30;;;4.35;;
56255;SDS011;57229;51.432;-2.598;2023-01-29T08:48:06;5.10;;;4.45;;
56255;SDS011;57229;51.432;-2.598;2023-01-29T08:50:32;8.95;;;4.72;;
56255;SDS011;57229;51.432;-2.598;2023-01-29T08:52:59;5.18;;;4.28;;
56255;SDS011;57229;51.432;-2.598;2023-01-29T08:55:26;4.70;;;4.15;;
56255;SDS011;57229;51.432;-2.598;2023-01-29T08:57:52;6.45;;;4.80;;
56255;SDS011;57229;51.432;-2.598;2023-01-29T09:00:18;6.45;;;4.50;;
56255;SDS011;57229;51.432;-2.598;2023-01-29T09:02:44;4.95;;;4.32;;
56255;SDS011;57229;51.432;-2.598;2023-01-29T09:05:10;6.47;;;4.47;;
56255;SDS011;57229;51.432;-2.598;2023-01-29T09:07:35;5.20;;;3.95;;
56255;SDS011;57229;51.432;-2.598;2023-01-29T09:10:01;5.97;;;4.05;;
56255;SDS011;57229;51.432;-2.598;2023-01-29T09:12:27;5.05;;;4.03;;
56255;SDS011;57229;51.432;-2.598;2023-01-29T09:14:54;4.82;;;4.00;;
56255;SDS011;57229;51.432;-2.598;2023-01-29T09:17:19;5.18;;;4.00;;
56255;SDS011;57229;51.432;-2.598;2023-01-29T09:19:45;6.20;;;4.13;;
56255;SDS011;57229;51.432;-2.598;2023-01-29T09:22:11;4.72;;;3.80;;
56255;SDS011;57229;51.432;-2.598;2023-01-29T09:24:37;5.10;;;4.50;;
56255;SDS011;57229;51.432;-2.598;2023-01-29T09:27:03;4.60;;;3.70;;
56255;SDS011;57229;51.432;-2.598;2023-01-29T09:29:29;4.35;;;3.95;;
56255;SDS011;57229;51.432;-2.598;2023-01-29T09:31:55;6.25;;;4.30;;
56255;SDS011;57229;51.432;-2.598;2023-01-29T09:34:20;5.97;;;4.35;;
56255;SDS011;57229;51.432;-2.598;2023-01-29T09:36:46;7.38;;;4.22;;
56255;SDS011;57229;51.432;-2.598;2023-01-29T09:39:12;8.55;;;4.10;;
56255;SDS011;57229;51.432;-2.598;2023-01-29T09:44:22;10.10;;;5.15;;
56255;SDS011;57229;51.432;-2.598;2023-01-29T09:47:02;7.88;;;5.25;;
56255;SDS011;57229;51.432;-2.598;2023-01-29T09:49:35;12.43;;;4.97;;
56255;SDS011;57229;51.432;-2.598;2023-01-29T09:52:09;6.63;;;4.47;;
56255;SDS011;57229;51.432;-2.598;2023-01-29T09:54:47;7.60;;;4.18;;
56255;SDS011;57229;51.432;-2.598;2023-01-29T09:57:49;11.20;;;4.82;;
56255;SDS011;57229;51.432;-2.598;2023-01-29T10:00:33;6.68;;;4.22;;
56255;SDS011;57229;51.432;-2.598;2023-01-29T10:22:32;6.45;;;4.22;;
56255;SDS011;57229;51.432;-2.598;2023-01-29T10:25:14;5.33;;;4.20;;
56255;SDS011;57229;51.432;-2.598;2023-01-29T10:27:45;5.65;;;4.20;;
56255;SDS011;57229;51.432;-2.598;2023-01-29T10:30:30;6.80;;;3.88;;
56255;SDS011;57229;51.432;-2.598;2023-01-29T10:32:58;7.43;;;3.90;;
56255;SDS011;57229;51.432;-2.598;2023-01-29T10:35:29;7.28;;;3.92;;
56255;SDS011;57229;51.432;-2.598;2023-01-29T10:38:19;7.10;;;3.67;;
56255;SDS011;57229;51.432;-2.598;2023-01-29T10:46:33;5.28;;;3.50;;
56255;SDS011;57229;51.432;-2.598;2023-01-29T10:55:42;4.45;;;3.50;;
56255;SDS011;57229;51.432;-2.598;2023-01-29T10:58:29;6.55;;;3.60;;
56255;SDS011;57229;51.432;-2.598;2023-01-29T11:01:02;6.68;;;3.53;;
56255;SDS011;57229;51.432;-2.598;2023-01-29T11:03:29;4.60;;;3.50;;
56255;SDS011;57229;51.432;-2.598;2023-01-29T11:11:46;6.22;;;3.63;;
56255;SDS011;57229;51.432;-2.598;2023-01-29T11:14:55;3.63;;;3.25;;
56255;SDS011;57229;51.432;-2.598;2023-01-29T11:17:22;6.40;;;3.40;;
56255;SDS011;57229;51.432;-2.598;2023-01-29T11:19:49;3.55;;;3.15;;
56255;SDS011;57229;51.432;-2.598;2023-01-29T11:22:17;3.90;;;2.90;;
56255;SDS011;57229;51.432;-2.598;2023-01-29T11:24:45;5.80;;;3.70;;
56255;SDS011;57229;51.432;-2.598;2023-01-29T11:29:57;5.18;;;3.05;;
56255;SDS011;57229;51.432;-2.598;2023-01-29T11:32:24;4.72;;;3.28;;
56255;SDS011;57229;51.432;-2.598;2023-01-29T11:37:42;4.30;;;2.80;;
56255;SDS011;57229;51.432;-2.598;2023-01-29T11:42:47;4.28;;;2.85;;
56255;SDS011;57229;51.432;-2.598;2023-01-29T11:45:24;4.47;;;3.13;;
56255;SDS011;57229;51.432;-2.598;2023-01-29T11:47:52;4.70;;;3.22;;
56255;SDS011;57229;51.432;-2.598;2023-01-29T11:50:20;5.60;;;2.92;;
56255;SDS011;57229;51.432;-2.598;2023-01-29T11:52:51;3.42;;;2.78;;
56255;SDS011;57229;51.432;-2.598;2023-01-29T11:55:18;5.82;;;3.00;;
56255;SDS011;57229;51.432;-2.598;2023-01-29T11:57:48;4.10;;;3.10;;
56255;SDS011;57229;51.432;-2.598;2023-01-29T12:00:25;3.63;;;2.70;;
56255;SDS011;57229;51.432;-2.598;2023-01-29T12:03:02;6.10;;;2.90;;
56255;SDS011;57229;51.432;-2.598;2023-01-29T12:06:02;3.13;;;2.83;;
56255;SDS011;57229;51.432;-2.598;2023-01-29T12:08:38;3.83;;;3.30;;
56255;SDS011;57229;51.432;-2.598;2023-01-29T12:11:25;4.93;;;3.10;;
56255;SDS011;57229;51.432;-2.598;2023-01-29T12:14:00;5.50;;;3.20;;
56255;SDS011;57229;51.432;-2.598;2023-01-29T12:16:36;4.45;;;3.03;;
56255;SDS011;57229;51.432;-2.598;2023-01-29T12:19:14;9.45;;;3.17;;
56255;SDS011;57229;51.432;-2.598;2023-01-29T12:28:19;12.07;;;5.47;;
56255;SDS011;57229;51.432;-2.598;2023-01-29T12:38:04;12.45;;;6.03;;
56255;SDS011;57229;51.432;-2.598;2023-01-29T12:44:20;12.15;;;5.63;;
56255;SDS011;57229;51.432;-2.598;2023-01-29T12:47:11;11.68;;;5.72;;
56255;SDS011;57229;51.432;-2.598;2023-01-29T12:49:44;9.80;;;5.70;;
56255;SDS011;57229;51.432;-2.598;2023-01-29T12:52:16;11.40;;;5.72;;
56255;SDS011;57229;51.432;-2.598;2023-01-29T12:54:59;13.18;;;5.90;;
56255;SDS011;57229;51.432;-2.598;2023-01-29T12:58:07;9.57;;;5.38;;
56255;SDS011;57229;51.432;-2.598;2023-01-29T13:01:19;7.60;;;5.13;;
56255;SDS011;57229;51.432;-2.598;2023-01-29T13:07:32;13.65;;;5.40;;
56255;SDS011;57229;51.432;-2.598;2023-01-29T13:10:11;13.30;;;5.95;;
56255;SDS011;57229;51.432;-2.598;2023-01-29T13:12:44;12.52;;;5.05;;
56255;SDS011;57229;51.432;-2.598;2023-01-29T13:15:25;6.43;;;4.40;;
56255;SDS011;57229;51.432;-2.598;2023-01-29T13:21:11;7.15;;;4.60;;
56255;SDS011;57229;51.432;-2.598;2023-01-29T13:27:01;8.13;;;4.53;;
56255;SDS011;57229;51.432;-2.598;2023-01-29T13:29:29;8.45;;;4.40;;
56255;SDS011;57229;51.432;-2.598;2023-01-29T13:32:02;10.25;;;4.57;;
56255;SDS011;57229;51.432;-2.598;2023-01-29T13:34:30;6.43;;;4.00;;
56255;SDS011;57229;51.432;-2.598;2023-01-29T13:37:02;8.93;;;4.45;;
56255;SDS011;57229;51.432;-2.598;2023-01-29T13:40:16;7.35;;;4.32;;
56255;SDS011;57229;51.432;-2.598;2023-01-29T13:42:37;5.65;;;3.90;;
56255;SDS011;57229;51.432;-2.598;2023-01-29T13:45:08;5.93;;;3.78;;
56255;SDS011;57229;51.432;-2.598;2023-01-29T13:50:40;5.65;;;3.28;;
56255;SDS011;57229;51.432;-2.598;2023-01-29T13:53:20;6.90;;;3.47;;
56255;SDS011;57229;51.432;-2.598;2023-01-29T14:03:42;7.32;;;3.10;;
56255;SDS011;57229;51.432;-2.598;2023-01-29T14:06:11;5.63;;;3.10;;
56255;SDS011;57229;51.432;-2.598;2023-01-29T14:12:01;3.53;;;2.83;;
56255;SDS011;57229;51.432;-2.598;2023-01-29T14:17:15;3.92;;;2.90;;
56255;SDS011;57229;51.432;-2.598;2023-01-29T14:19:49;5.50;;;3.00;;
56255;SDS011;57229;51.432;-2.598;2023-01-29T14:22:41;3.90;;;2.60;;
56255;SDS011;57229;51.432;-2.598;2023-01-29T14:25:14;4.93;;;2.90;;
56255;SDS011;57229;51.432;-2.598;2023-01-29T14:27:45;3.25;;;2.53;;
56255;SDS011;57229;51.432;-2.598;2023-01-29T14:30:15;4.57;;;2.70;;
56255;SDS011;57229;51.432;-2.598;2023-01-29T14:32:46;3.72;;;2.38;;
56255;SDS011;57229;51.432;-2.598;2023-01-29T14:35:26;4.57;;;2.28;;
56255;SDS011;57229;51.432;-2.598;2023-01-29T14:38:16;3.58;;;2.40;;
56255;SDS011;57229;51.432;-2.598;2023-01-29T14:40:43;3.72;;;2.30;;
56255;SDS011;57229;51.432;-2.598;2023-01-29T14:43:16;3.58;;;2.53;;
56255;SDS011;57229;51.432;-2.598;2023-01-29T15:05:41;2.55;;;2.22;;
56255;SDS011;57229;51.432;-2.598;2023-01-29T15:08:19;2.53;;;2.30;;
56255;SDS011;57229;51.432;-2.598;2023-01-29T15:10:59;3.70;;;2.10;;
56255;SDS011;57229;51.432;-2.598;2023-01-29T15:17:27;2.20;;;2.00;;
56255;SDS011;57229;51.432;-2.598;2023-01-29T15:19:57;4.38;;;2.10;;
56255;SDS011;57229;51.432;-2.598;2023-01-29T15:22:23;5.55;;;2.80;;
56255;SDS011;57229;51.432;-2.598;2023-01-29T15:25:05;3.08;;;2.25;;
56255;SDS011;57229;51.432;-2.598;2023-01-29T15:27:41;5.07;;;2.78;;
56255;SDS011;57229;51.432;-2.598;2023-01-29T15:30:19;4.00;;;2.40;;
56255;SDS011;57229;51.432;-2.598;2023-01-29T15:40:03;3.97;;;2.53;;
56255;SDS011;57229;51.432;-2.598;2023-01-29T15:42:44;2.75;;;2.50;;
56255;SDS011;57229;51.432;-2.598;2023-01-29T15:45:24;3.03;;;2.28;;
56255;SDS011;57229;51.432;-2.598;2023-01-29T15:47:57;4.70;;;2.20;;
56255;SDS011;57229;51.432;-2.598;2023-01-29T15:50:51;3.58;;;2.58;;
56255;SDS011;57229;51.432;-2.598;2023-01-29T15:53:27;4.03;;;2.50;;
56255;SDS011;57229;51.432;-2.598;2023-01-29T15:55:59;3.70;;;2.50;;
56255;SDS011;57229;51.432;-2.598;2023-01-29T15:58:47;2.90;;;2.60;;
56255;SDS011;57229;51.432;-2.598;2023-01-29T16:04:53;5.00;;;2.30;;
56255;SDS011;57229;51.432;-2.598;2023-01-29T16:07:20;2.92;;;2.40;;
56255;SDS011;57229;51.432;-2.598;2023-01-29T16:09:47;3.65;;;2.30;;
56255;SDS011;57229;51.432;-2.598;2023-01-29T16:12:14;5.78;;;2.20;;
56255;SDS011;57229;51.432;-2.598;2023-01-29T16:14:40;3.50;;;2.13;;
56255;SDS011;57229;51.432;-2.598;2023-01-29T16:17:22;5.10;;;2.10;;
56255;SDS011;57229;51.432;-2.598;2023-01-29T16:27:19;4.10;;;2.30;;
56255;SDS011;57229;51.432;-2.598;2023-01-29T16:29:45;2.50;;;2.30;;
56255;SDS011;57229;51.432;-2.598;2023-01-29T16:39:12;5.22;;;2.60;;
56255;SDS011;57229;51.432;-2.598;2023-01-29T16:48:27;2.72;;;2.53;;
56255;SDS011;57229;51.432;-2.598;2023-01-29T16:57:43;3.67;;;2.80;;
56255;SDS011;57229;51.432;-2.598;2023-01-29T17:00:24;4.35;;;2.70;;
56255;SDS011;57229;51.432;-2.598;2023-01-29T17:04:06;4.57;;;2.75;;
56255;SDS011;57229;51.432;-2.598;2023-01-29T17:06:25;6.47;;;3.15;;
56255;SDS011;57229;51.432;-2.598;2023-01-29T17:08:52;4.95;;;3.17;;
56255;SDS011;57229;51.432;-2.598;2023-01-29T17:14:40;6.18;;;3.28;;
56255;SDS011;57229;51.432;-2.598;2023-01-29T17:17:17;11.18;;;3.85;;
56255;SDS011;57229;51.432;-2.598;2023-01-29T17:19:44;5.05;;;3.22;;
56255;SDS011;57229;51.432;-2.598;2023-01-29T17:22:09;5.47;;;3.67;;
56255;SDS011;57229;51.432;-2.598;2023-01-29T17:24:42;5.57;;;3.33;;
56255;SDS011;57229;51.432;-2.598;2023-01-29T17:27:18;6.68;;;3.78;;
56255;SDS011;57229;51.432;-2.598;2023-01-29T17:29:47;6.45;;;4.10;;
56255;SDS011;57229;51.432;-2.598;2023-01-29T17:32:14;6.30;;;3.70;;
56255;SDS011;57229;51.432;-2.598;2023-01-29T17:34:42;6.15;;;3.58;;
56255;SDS011;57229;51.432;-2.598;2023-01-29T17:37:11;7.50;;;3.33;;
56255;SDS011;57229;51.432;-2.598;2023-01-29T17:39:40;6.15;;;3.65;;
56255;SDS011;57229;51.432;-2.598;2023-01-29T17:42:09;6.15;;;3.53;;
56255;SDS011;57229;51.432;-2.598;2023-01-29T17:44:38;7.38;;;3.28;;
56255;SDS011;57229;51.432;-2.598;2023-01-29T17:47:16;5.80;;;3.63;;
56255;SDS011;57229;51.432;-2.598;2023-01-29T17:49:41;5.87;;;3.60;;
56255;SDS011;57229;51.432;-2.598;2023-01-29T17:52:09;6.78;;;3.53;;
56255;SDS011;57229;51.432;-2.598;2023-01-29T17:54:35;5.32;;;3.10;;
56255;SDS011;57229;51.432;-2.598;2023-01-29T17:57:01;8.73;;;3.60;;
56255;SDS011;57229;51.432;-2.598;2023-01-29T17:59:34;5.75;;;3.28;;
56255;SDS011;57229;51.432;-2.598;2023-01-29T18:02:10;7.80;;;3.58;;
56255;SDS011;57229;51.432;-2.598;2023-01-29T18:04:36;7.97;;;3.35;;
56255;SDS011;57229;51.432;-2.598;2023-01-29T18:07:02;8.65;;;3.65;;
56255;SDS011;57229;51.432;-2.598;2023-01-29T18:09:32;9.10;;;3.10;;
56255;SDS011;57229;51.432;-2.598;2023-01-29T18:11:57;5.45;;;3.30;;
56255;SDS011;57229;51.432;-2.598;2023-01-29T18:14:23;6.55;;;3.70;;
56255;SDS011;57229;51.432;-2.598;2023-01-29T18:16:49;5.68;;;3.55;;